createdAt,value
2017-07-27T00:00:10.472Z,17.00
2017-07-27T00:02:38.747Z,25.50
2017-07-27T00:05:07.411Z,19.33
2017-07-27T00:07:36.012Z,17.60
2017-07-27T00:10:04.267Z,17.80
2017-07-27T00:12:32.575Z,16.47
2017-07-27T00:15:01.144Z,15.70
2017-07-27T00:17:29.848Z,17.40
2017-07-27T00:19:58.237Z,16.80
2017-07-27T00:22:26.938Z,17.30
2017-07-27T00:24:55.640Z,18.43
2017-07-27T00:27:24.725Z,23.53
2017-07-27T00:29:53.297Z,18.23
2017-07-27T00:32:21.677Z,15.40
2017-07-27T00:34:50.075Z,16.13
2017-07-27T00:37:18.647Z,15.33
2017-07-27T00:39:46.962Z,17.53
2017-07-27T00:42:15.236Z,18.27
2017-07-27T00:44:44.323Z,17.33
2017-07-27T00:47:12.615Z,18.27
2017-07-27T00:49:41.277Z,15.33
2017-07-27T00:52:10.383Z,14.60
2017-07-27T00:54:38.677Z,16.47
2017-07-27T00:57:07.058Z,16.33
2017-07-27T00:59:35.369Z,15.10
2017-07-27T01:02:05.056Z,20.70
2017-07-27T01:04:33.378Z,16.60
2017-07-27T01:07:01.995Z,15.87
2017-07-27T01:09:30.309Z,15.33
2017-07-27T01:11:58.698Z,18.73
2017-07-27T01:14:27.264Z,15.70
2017-07-27T01:16:55.560Z,15.87
2017-07-27T01:19:23.845Z,17.23
2017-07-27T01:21:52.414Z,17.13
2017-07-27T01:24:21.449Z,21.23
2017-07-27T01:26:50.113Z,15.30
2017-07-27T01:29:18.391Z,19.10
2017-07-27T01:31:46.674Z,14.87
2017-07-27T01:34:14.986Z,15.47
2017-07-27T01:36:44.061Z,21.23
2017-07-27T01:39:12.863Z,13.53
2017-07-27T01:41:41.234Z,17.93
2017-07-27T01:44:09.512Z,15.83
2017-07-27T01:46:37.821Z,17.63
2017-07-27T01:49:06.876Z,17.60
2017-07-27T01:51:35.438Z,17.60
2017-07-27T01:54:03.745Z,15.20
2017-07-27T01:56:32.037Z,17.60
2017-07-27T01:59:00.345Z,16.80
2017-07-27T02:01:28.658Z,17.67
2017-07-27T02:03:57.309Z,18.30
2017-07-27T02:06:25.581Z,20.77
2017-07-27T02:08:53.881Z,17.83
2017-07-27T02:14:22.916Z,18.30
2017-07-27T02:16:51.538Z,17.73
2017-07-27T02:19:21.011Z,16.27
2017-07-27T02:21:50.124Z,20.17
2017-07-27T02:24:19.958Z,17.07
2017-07-27T02:26:49.071Z,18.77
2017-07-27T02:29:17.981Z,28.03
2017-07-27T02:31:46.991Z,18.00
2017-07-27T02:34:15.395Z,17.93
2017-07-27T02:36:43.740Z,17.17
2017-07-27T02:39:12.884Z,17.90
2017-07-27T02:41:41.461Z,17.40
2017-07-27T02:44:10.955Z,17.33
2017-07-27T02:46:40.441Z,16.27
2017-07-27T02:49:08.756Z,17.20
2017-07-27T02:51:38.298Z,17.47
2017-07-27T02:54:08.401Z,21.13
2017-07-27T02:56:37.236Z,17.80
2017-07-27T02:59:06.552Z,15.83
2017-07-27T03:01:34.945Z,17.30
2017-07-27T03:04:04.838Z,18.53
2017-07-27T03:06:35.091Z,20.60
2017-07-27T03:09:04.238Z,19.83
2017-07-27T03:11:32.578Z,16.30
2017-07-27T03:14:01.608Z,23.90
2017-07-27T03:16:31.852Z,22.50
2017-07-27T03:19:00.670Z,26.07
2017-07-27T03:21:29.711Z,18.60
2017-07-27T03:23:59.464Z,26.07
2017-07-27T03:26:31.242Z,24.33
2017-07-27T03:29:00.367Z,28.17
2017-07-27T03:31:29.604Z,19.20
2017-07-27T03:36:32.110Z,20.07
2017-07-27T03:39:01.005Z,20.13
2017-07-27T03:41:29.347Z,18.67
2017-07-27T03:43:58.551Z,22.80
2017-07-27T03:46:27.029Z,19.53
2017-07-27T03:48:56.029Z,20.83
2017-07-27T03:51:24.356Z,22.37
2017-07-27T03:53:53.756Z,20.33
2017-07-27T03:56:22.752Z,19.60
2017-07-27T03:58:53.330Z,18.47
2017-07-27T04:01:22.274Z,23.70
2017-07-27T04:03:51.484Z,17.27
2017-07-27T04:06:19.987Z,21.77
2017-07-27T04:08:49.157Z,20.30
2017-07-27T04:11:17.486Z,18.73
2017-07-27T04:13:46.179Z,22.17
2017-07-27T04:16:15.276Z,33.93
2017-07-27T04:18:45.321Z,16.23
2017-07-27T04:21:14.445Z,19.90
2017-07-27T04:23:44.421Z,24.67
2017-07-27T04:26:16.019Z,20.77
2017-07-27T04:28:44.357Z,19.00
2017-07-27T04:31:13.332Z,15.33
2017-07-27T04:33:41.745Z,17.90
2017-07-27T04:36:10.507Z,24.13
2017-07-27T04:38:39.938Z,18.47
2017-07-27T04:41:09.325Z,21.30
2017-07-27T04:43:38.562Z,15.57
2017-07-27T04:46:08.539Z,22.87
2017-07-27T04:48:37.051Z,15.10
2017-07-27T04:51:06.739Z,17.13
2017-07-27T04:53:35.973Z,14.50
2017-07-27T04:56:05.060Z,20.90
2017-07-27T04:58:34.608Z,20.60
2017-07-27T05:01:02.711Z,13.40
2017-07-27T05:03:32.543Z,14.73
2017-07-27T05:06:00.585Z,17.03
2017-07-27T05:08:29.452Z,15.53
2017-07-27T05:10:57.848Z,16.07
2017-07-27T05:13:25.969Z,15.70
2017-07-27T05:15:55.999Z,13.67
2017-07-27T05:18:24.647Z,17.03
2017-07-27T05:20:53.522Z,14.37
2017-07-27T05:23:22.051Z,14.13
2017-07-27T05:25:50.182Z,18.10
2017-07-27T05:28:20.577Z,14.90
2017-07-27T05:30:48.914Z,11.07
2017-07-27T05:33:17.343Z,13.00
2017-07-27T05:35:45.523Z,13.10
2017-07-27T05:38:14.293Z,12.90
2017-07-27T05:40:42.642Z,12.10
2017-07-27T05:43:11.086Z,12.50
2017-07-27T05:45:39.163Z,15.43
2017-07-27T05:48:08.418Z,12.47
2017-07-27T05:50:36.478Z,13.30
2017-07-27T05:53:04.929Z,13.60
2017-07-27T05:55:33.262Z,12.50
2017-07-27T05:58:02.206Z,11.80
2017-07-27T06:00:32.791Z,12.83
2017-07-27T06:03:01.648Z,16.70
2017-07-27T06:05:30.119Z,13.60
2017-07-27T06:08:00.052Z,17.93
2017-07-27T06:10:28.193Z,11.97
2017-07-27T06:12:56.332Z,12.73
2017-07-27T06:15:24.473Z,12.50
2017-07-27T06:17:53.676Z,13.37
2017-07-27T06:20:23.414Z,15.47
2017-07-27T06:22:52.448Z,11.57
2017-07-27T06:25:21.617Z,12.80
2017-07-27T06:27:50.460Z,12.17
2017-07-27T06:30:19.628Z,12.60
2017-07-27T06:32:48.812Z,14.90
2017-07-27T06:35:17.672Z,11.97
2017-07-27T06:37:47.130Z,13.03
2017-07-27T06:40:15.882Z,15.97
2017-07-27T06:42:44.144Z,12.27
2017-07-27T06:45:12.773Z,14.03
2017-07-27T06:47:41.751Z,15.63
2017-07-27T06:50:10.397Z,14.73
2017-07-27T06:52:39.413Z,17.20
2017-07-27T06:55:08.591Z,12.07
2017-07-27T06:57:37.959Z,15.20
2017-07-27T07:00:06.979Z,14.70
2017-07-27T07:02:35.337Z,15.20
2017-07-27T07:05:04.320Z,13.50
2017-07-27T07:07:33.168Z,14.20
2017-07-27T07:10:03.136Z,15.53
2017-07-27T07:12:31.212Z,17.33
2017-07-27T07:15:00.482Z,14.07
2017-07-27T07:17:28.822Z,13.27
2017-07-27T07:19:58.263Z,17.10
2017-07-27T07:22:27.121Z,14.10
2017-07-27T07:24:55.545Z,14.10
2017-07-27T07:27:25.320Z,14.80
2017-07-27T07:29:53.398Z,13.97
2017-07-27T07:32:21.766Z,13.23
2017-07-27T07:34:51.144Z,12.10
2017-07-27T07:39:55.498Z,17.63
2017-07-27T07:42:24.748Z,14.00
2017-07-27T07:44:53.268Z,12.60
2017-07-27T07:47:22.410Z,12.60
2017-07-27T07:49:50.997Z,12.73
2017-07-27T07:52:20.607Z,12.60
2017-07-27T07:54:49.012Z,14.20
2017-07-27T07:57:17.313Z,16.70
2017-07-27T07:59:45.484Z,28.10
2017-07-27T08:02:15.682Z,18.63
2017-07-27T08:04:45.749Z,12.33
2017-07-27T08:07:15.629Z,12.77
2017-07-27T08:09:56.588Z,14.47
2017-07-27T08:12:25.009Z,14.80
2017-07-27T08:14:53.338Z,12.97
2017-07-27T08:17:22.354Z,11.83
2017-07-27T08:19:50.770Z,11.57
2017-07-27T08:22:18.856Z,11.77
2017-07-27T08:24:47.516Z,12.43
2017-07-27T08:27:15.879Z,13.17
2017-07-27T08:29:44.582Z,9.60
2017-07-27T08:32:12.723Z,13.50
2017-07-27T08:34:41.980Z,11.53
2017-07-27T08:37:10.237Z,10.57
2017-07-27T08:39:38.938Z,12.17
2017-07-27T08:42:07.341Z,9.00
2017-07-27T08:44:36.135Z,9.40
2017-07-27T08:47:04.995Z,8.73
2017-07-27T08:49:33.371Z,9.17
2017-07-27T08:52:01.448Z,15.80
2017-07-27T08:54:29.548Z,8.03
2017-07-27T08:56:58.329Z,9.33
2017-07-27T08:59:27.316Z,9.53
2017-07-27T09:01:56.359Z,9.13
2017-07-27T09:04:25.925Z,11.23
2017-07-27T09:06:55.045Z,9.40
2017-07-27T09:09:24.724Z,8.40
2017-07-27T09:11:54.106Z,10.43
2017-07-27T09:14:22.812Z,8.23
2017-07-27T09:16:52.048Z,8.00
2017-07-27T09:19:22.947Z,8.80
2017-07-27T09:21:52.162Z,7.97
2017-07-27T09:24:21.342Z,7.10
2017-07-27T09:26:51.130Z,7.30
2017-07-27T09:29:20.906Z,7.87
2017-07-27T09:31:49.388Z,10.13
2017-07-27T09:34:19.514Z,7.60
2017-07-27T09:36:47.814Z,6.83
2017-07-27T09:39:17.175Z,7.43
2017-07-27T09:41:46.362Z,7.40
2017-07-27T09:44:16.219Z,8.10
2017-07-27T09:46:44.283Z,7.07
2017-07-27T09:49:13.648Z,8.23
2017-07-27T09:51:42.113Z,7.30
2017-07-27T09:54:12.129Z,8.17
2017-07-27T09:56:41.192Z,8.47
2017-07-27T09:59:11.667Z,8.70
2017-07-27T10:01:39.789Z,9.13
2017-07-27T10:04:08.220Z,9.93
2017-07-27T10:06:38.346Z,9.67
2017-07-27T10:09:06.589Z,7.37
2017-07-27T10:11:37.434Z,7.40
2017-07-27T10:14:07.244Z,5.73
2017-07-27T10:16:36.167Z,6.07
2017-07-27T10:19:04.613Z,9.30
2017-07-27T10:21:33.917Z,7.00
2017-07-27T10:24:03.033Z,7.63
2017-07-27T10:26:34.014Z,7.63
2017-07-27T10:29:03.235Z,8.10
2017-07-27T10:31:33.072Z,8.33
2017-07-27T10:34:01.635Z,9.40
2017-07-27T10:36:31.396Z,8.03
2017-07-27T10:39:00.604Z,7.20
2017-07-27T10:41:29.845Z,9.03
2017-07-27T10:43:59.592Z,8.90
2017-07-27T10:46:27.947Z,11.93
2017-07-27T10:48:56.477Z,7.60
2017-07-27T10:51:25.215Z,9.33
2017-07-27T10:53:53.384Z,9.00
2017-07-27T10:56:23.035Z,13.63
2017-07-27T10:58:51.599Z,9.17
2017-07-27T11:01:19.982Z,8.63
2017-07-27T11:03:48.327Z,9.20
2017-07-27T11:06:17.215Z,7.93
2017-07-27T11:08:45.641Z,9.10
2017-07-27T11:11:14.243Z,7.00
2017-07-27T11:13:42.278Z,8.27
2017-07-27T11:16:10.432Z,8.30
2017-07-27T11:18:39.636Z,8.70
2017-07-27T11:21:07.770Z,10.17
2017-07-27T11:23:35.901Z,9.57
2017-07-27T11:26:03.977Z,8.40
2017-07-27T11:28:34.078Z,8.07
2017-07-27T11:31:03.732Z,10.80
2017-07-27T11:33:31.862Z,12.03
2017-07-27T11:36:01.656Z,9.97
2017-07-27T11:38:29.717Z,10.00
2017-07-27T11:40:58.342Z,12.13
2017-07-27T11:43:26.647Z,12.00
2017-07-27T11:45:55.661Z,10.13
2017-07-27T11:48:24.547Z,10.00
2017-07-27T11:50:53.378Z,11.73
2017-07-27T11:53:22.958Z,9.67
2017-07-27T11:55:51.014Z,9.70
2017-07-27T11:58:19.094Z,10.53
2017-07-27T12:00:47.234Z,11.13
2017-07-27T12:03:15.292Z,13.30
2017-07-27T12:05:44.349Z,11.17
2017-07-27T12:08:12.459Z,12.30
2017-07-27T12:10:42.103Z,12.00
2017-07-27T12:13:10.281Z,12.07
2017-07-27T12:15:38.614Z,11.07
2017-07-27T12:18:09.290Z,10.57
2017-07-27T12:20:37.471Z,12.40
2017-07-27T12:23:05.528Z,9.70
2017-07-27T12:25:34.462Z,9.53
2017-07-27T12:28:03.168Z,8.80
2017-07-27T12:30:31.777Z,10.13
2017-07-27T12:33:00.602Z,8.47
2017-07-27T12:35:28.658Z,15.80
2017-07-27T12:37:56.747Z,11.20
2017-07-27T12:40:24.870Z,13.10
2017-07-27T12:42:53.268Z,13.80
2017-07-27T12:45:21.312Z,11.80
2017-07-27T12:47:49.377Z,12.70
2017-07-27T12:50:17.789Z,12.77
2017-07-27T12:52:45.972Z,13.50
2017-07-27T12:55:14.140Z,13.57
2017-07-27T12:57:42.493Z,14.87
2017-07-27T13:00:10.936Z,16.10
2017-07-27T13:02:39.081Z,16.80
2017-07-27T13:05:07.484Z,17.50
2017-07-27T13:07:36.154Z,16.07
2017-07-27T13:10:04.243Z,17.63
2017-07-27T13:12:32.614Z,16.37
2017-07-27T13:15:00.662Z,18.10
2017-07-27T13:17:28.779Z,16.33
2017-07-27T13:19:58.075Z,14.27
2017-07-27T13:22:26.134Z,15.37
2017-07-27T13:24:54.248Z,14.10
2017-07-27T13:27:22.713Z,14.90
2017-07-27T13:32:28.757Z,13.17
2017-07-27T13:34:56.804Z,12.53
2017-07-27T13:37:25.569Z,13.10
2017-07-27T13:39:54.447Z,11.73
2017-07-27T13:42:22.834Z,12.80
2017-07-27T13:44:51.519Z,11.90
2017-07-27T13:47:19.949Z,12.97
2017-07-27T13:49:50.657Z,11.70
2017-07-27T13:52:19.094Z,14.33
2017-07-27T13:54:47.486Z,10.37
2017-07-27T13:57:15.530Z,12.10
2017-07-27T13:59:43.614Z,9.23
2017-07-27T14:02:12.782Z,8.53
2017-07-27T14:04:41.968Z,8.13
2017-07-27T14:07:10.346Z,8.97
2017-07-27T14:09:38.701Z,7.37
2017-07-27T14:12:07.127Z,7.83
2017-07-27T14:14:35.172Z,7.20
2017-07-27T14:17:03.651Z,6.90
2017-07-27T14:19:32.485Z,6.90
2017-07-27T14:22:00.528Z,7.30
2017-07-27T14:24:30.271Z,6.00
2017-07-27T14:26:58.270Z,8.13
2017-07-27T14:29:27.057Z,6.50
2017-07-27T14:31:55.395Z,5.20
2017-07-27T14:34:24.099Z,6.77
2017-07-27T14:36:52.464Z,5.90
2017-07-27T14:39:20.837Z,4.53
2017-07-27T14:41:50.013Z,4.80
2017-07-27T14:44:19.104Z,4.10
2017-07-27T14:46:47.473Z,4.73
2017-07-27T14:49:15.668Z,3.73
2017-07-27T14:51:43.738Z,4.27
2017-07-27T14:54:12.101Z,4.30
2017-07-27T14:56:40.169Z,4.70
2017-07-27T14:59:09.124Z,8.10
2017-07-27T15:01:38.826Z,5.57
2017-07-27T15:04:06.956Z,9.93
2017-07-27T15:06:35.007Z,5.23
2017-07-27T15:09:03.833Z,8.87
2017-07-27T15:11:31.983Z,5.87
2017-07-27T15:14:00.059Z,5.80
2017-07-27T15:16:28.468Z,6.20
2017-07-27T15:18:57.248Z,5.13
2017-07-27T15:21:26.685Z,12.80
2017-07-27T15:23:55.085Z,15.27
2017-07-27T15:26:24.208Z,4.30
2017-07-27T15:28:53.097Z,5.60
2017-07-27T15:31:21.518Z,5.93
2017-07-27T15:33:50.534Z,4.97
2017-07-27T15:36:18.821Z,5.60
2017-07-27T15:38:47.179Z,5.47
2017-07-27T15:41:15.431Z,5.43
2017-07-27T15:43:44.023Z,5.63
2017-07-27T15:46:13.135Z,6.07
2017-07-27T15:48:41.923Z,5.73
2017-07-27T15:51:09.975Z,5.50
2017-07-27T15:53:38.437Z,6.00
2017-07-27T15:56:06.508Z,6.40
2017-07-27T15:58:34.672Z,5.23
2017-07-27T16:01:04.595Z,6.17
2017-07-27T16:03:33.839Z,5.90
2017-07-27T16:06:02.077Z,6.40
2017-07-27T16:08:30.425Z,7.13
2017-07-27T16:10:58.644Z,6.47
2017-07-27T16:13:27.175Z,6.80
2017-07-27T16:15:56.324Z,6.80
2017-07-27T16:18:24.402Z,7.40
2017-07-27T16:20:53.093Z,6.40
2017-07-27T16:23:21.463Z,7.17
2017-07-27T16:25:50.513Z,7.93
2017-07-27T16:28:18.844Z,7.67
2017-07-27T16:30:47.240Z,6.37
2017-07-27T16:33:15.933Z,7.13
2017-07-27T16:35:43.977Z,7.70
2017-07-27T16:38:13.106Z,6.87
2017-07-27T16:40:41.222Z,6.43
2017-07-27T16:43:10.187Z,7.40
2017-07-27T16:45:38.782Z,7.03
2017-07-27T16:48:06.833Z,6.70
2017-07-27T16:50:35.942Z,7.57
2017-07-27T16:53:04.317Z,7.27
2017-07-27T16:55:33.032Z,6.60
2017-07-27T16:58:01.720Z,7.63
2017-07-27T17:00:30.677Z,7.10
2017-07-27T17:03:00.087Z,7.70
2017-07-27T17:05:28.587Z,7.70
2017-07-27T17:07:56.968Z,7.20
2017-07-27T17:10:25.719Z,8.90
2017-07-27T17:12:53.834Z,11.03
2017-07-27T17:15:23.403Z,11.27
2017-07-27T17:17:51.538Z,8.30
2017-07-27T17:20:20.386Z,9.73
2017-07-27T17:22:48.841Z,8.40
2017-07-27T17:25:16.896Z,8.20
2017-07-27T17:27:45.558Z,9.83
2017-07-27T17:30:14.694Z,8.83
2017-07-27T17:32:42.777Z,11.20
2017-07-27T17:35:11.226Z,8.83
2017-07-27T17:37:40.037Z,8.77
2017-07-27T17:40:09.474Z,8.30
2017-07-27T17:42:37.411Z,9.43
2017-07-27T17:45:05.853Z,9.40
2017-07-27T17:47:33.941Z,9.20
2017-07-27T17:50:02.051Z,10.40
2017-07-27T17:52:30.560Z,10.60
2017-07-27T17:54:58.584Z,9.83
2017-07-27T17:57:27.527Z,9.30
2017-07-27T17:59:56.505Z,9.70
2017-07-27T18:02:25.178Z,8.60
2017-07-27T18:04:53.982Z,10.63
2017-07-27T18:07:22.315Z,9.70
2017-07-27T18:09:50.498Z,10.30
2017-07-27T18:12:18.526Z,9.97
2017-07-27T18:14:46.940Z,10.40
2017-07-27T18:17:16.726Z,9.87
2017-07-27T18:19:45.699Z,10.23
2017-07-27T18:22:14.842Z,11.30
2017-07-27T18:24:43.793Z,10.73
2017-07-27T18:27:12.623Z,12.03
2017-07-27T18:29:41.039Z,10.50
2017-07-27T18:32:09.087Z,10.10
2017-07-27T18:34:37.194Z,11.70
2017-07-27T18:37:05.555Z,11.47
2017-07-27T18:39:33.732Z,12.03
2017-07-27T18:42:02.200Z,17.90
2017-07-27T18:44:31.080Z,10.63
2017-07-27T18:46:59.487Z,11.50
2017-07-27T18:49:28.406Z,10.77
2017-07-27T18:51:57.689Z,13.77
2017-07-27T18:54:26.310Z,10.67
2017-07-27T18:56:55.407Z,10.53
2017-07-27T18:59:23.743Z,14.77
2017-07-27T19:01:51.839Z,9.53
2017-07-27T19:04:20.128Z,10.40
2017-07-27T19:06:49.089Z,11.80
2017-07-27T19:09:17.389Z,10.60
2017-07-27T19:11:45.774Z,10.30
2017-07-27T19:14:16.593Z,11.73
2017-07-27T19:16:46.103Z,9.53
2017-07-27T19:19:15.752Z,9.73
2017-07-27T19:21:44.241Z,9.37
2017-07-27T19:24:13.017Z,8.30
2017-07-27T19:26:41.946Z,7.00
2017-07-27T19:29:12.563Z,10.37
2017-07-27T19:31:42.803Z,5.63
2017-07-27T19:34:12.402Z,5.33
2017-07-27T19:36:42.616Z,4.57
2017-07-27T19:39:12.127Z,6.83
2017-07-27T19:41:43.906Z,4.30
2017-07-27T19:44:14.316Z,4.57
2017-07-27T19:46:44.129Z,4.90
2017-07-27T19:49:13.229Z,5.00
2017-07-27T19:51:41.521Z,4.80
2017-07-27T19:54:10.081Z,4.73
2017-07-27T19:56:38.376Z,4.50
2017-07-27T19:59:07.281Z,4.30
2017-07-27T20:01:35.884Z,4.07
2017-07-27T20:04:04.652Z,5.30
2017-07-27T20:06:32.935Z,7.37
2017-07-27T20:09:02.457Z,7.00
2017-07-27T20:11:31.527Z,6.83
2017-07-27T20:13:59.811Z,4.67
2017-07-27T20:16:28.440Z,5.63
2017-07-27T20:18:56.790Z,6.17
2017-07-27T20:21:25.074Z,5.53
2017-07-27T20:23:53.679Z,6.50
2017-07-27T20:26:22.046Z,3.77
2017-07-27T20:28:50.936Z,7.30
2017-07-27T20:31:19.528Z,5.53
2017-07-27T20:33:48.225Z,5.27
2017-07-27T20:36:16.725Z,4.47
2017-07-27T20:38:45.953Z,5.20
2017-07-27T20:41:15.447Z,6.03
2017-07-27T20:43:43.717Z,6.00
2017-07-27T20:46:12.816Z,5.17
2017-07-27T20:48:41.514Z,5.63
2017-07-27T20:51:09.801Z,6.70
2017-07-27T20:53:38.350Z,5.30
2017-07-27T20:56:06.648Z,4.87
2017-07-27T20:58:34.949Z,5.40
2017-07-27T21:01:05.641Z,3.50
2017-07-27T21:03:34.308Z,3.47
2017-07-27T21:06:03.338Z,3.53
2017-07-27T21:08:31.930Z,5.93
2017-07-27T21:11:00.238Z,4.67
2017-07-27T21:13:28.615Z,4.30
2017-07-27T21:15:57.512Z,5.30
2017-07-27T21:18:26.203Z,4.93
2017-07-27T21:20:54.504Z,5.63
2017-07-27T21:23:23.087Z,5.83
2017-07-27T21:25:51.548Z,6.83
2017-07-27T21:28:20.705Z,7.20
2017-07-27T21:30:49.343Z,9.50
2017-07-27T21:33:17.915Z,9.50
2017-07-27T21:35:46.223Z,8.67
2017-07-27T21:38:15.151Z,7.07
2017-07-27T21:40:43.444Z,7.10
2017-07-27T21:43:12.532Z,6.63
2017-07-27T21:45:41.892Z,6.20
2017-07-27T21:48:10.164Z,5.67
2017-07-27T21:50:38.456Z,5.70
2017-07-27T21:53:07.048Z,8.70
2017-07-27T21:55:35.377Z,6.60
2017-07-27T21:58:03.774Z,6.33
2017-07-27T22:00:32.441Z,5.87
2017-07-27T22:03:01.522Z,6.63
2017-07-27T22:05:29.799Z,8.73
2017-07-27T22:07:58.532Z,8.83
2017-07-27T22:10:26.815Z,6.27
2017-07-27T22:12:55.763Z,12.10
2017-07-27T22:15:24.661Z,9.27
2017-07-27T22:17:53.011Z,8.53
2017-07-27T22:20:21.298Z,6.60
2017-07-27T22:22:49.921Z,7.57
2017-07-27T22:25:18.249Z,6.57
2017-07-27T22:27:47.058Z,5.93
2017-07-27T22:30:15.658Z,6.60
2017-07-27T22:32:43.930Z,6.00
2017-07-27T22:35:12.210Z,6.10
2017-07-27T22:37:41.165Z,6.83
2017-07-27T22:40:09.899Z,5.70
2017-07-27T22:42:38.178Z,6.00
2017-07-27T22:45:07.627Z,6.20
2017-07-27T22:47:36.153Z,5.10
2017-07-27T22:50:05.244Z,6.73
2017-07-27T22:52:33.876Z,6.03
2017-07-27T22:55:02.284Z,6.60
2017-07-27T22:57:31.700Z,5.93
2017-07-27T23:00:01.035Z,6.83
2017-07-27T23:02:29.317Z,6.70
2017-07-27T23:04:58.602Z,6.70
2017-07-27T23:07:27.972Z,5.33
2017-07-27T23:09:56.383Z,7.57
2017-07-27T23:12:24.661Z,6.87
2017-07-27T23:14:54.035Z,10.30
2017-07-27T23:17:22.413Z,10.03
2017-07-27T23:19:50.696Z,9.40
2017-07-27T23:22:19.297Z,7.57
2017-07-27T23:24:47.574Z,11.23
2017-07-27T23:27:15.975Z,8.47
2017-07-27T23:29:44.714Z,8.17
2017-07-27T23:32:13.389Z,8.40
2017-07-27T23:34:42.419Z,6.63
2017-07-27T23:37:10.986Z,7.77
2017-07-27T23:39:39.274Z,7.20
2017-07-27T23:42:08.448Z,6.33
2017-07-27T23:44:37.086Z,5.90
2017-07-27T23:47:05.384Z,9.03
2017-07-27T23:49:33.762Z,10.10
2017-07-27T23:52:02.368Z,6.13
2017-07-27T23:54:30.760Z,6.87
2017-07-27T23:56:59.009Z,5.97
2017-07-27T23:59:27.590Z,5.10
